sensor_id;sensor_type;location;lat;lon;timestamp;P1;durP1;ratioP1;P2;durP2;ratioP2
65156;SDS011;52745;49.794;18.258;2023-05-24T00:00:19;14.73;;;9.77;;
65156;SDS011;52745;49.794;18.258;2023-05-24T00:03:07;19.25;;;10.55;;
65156;SDS011;52745;49.794;18.258;2023-05-24T00:05:34;19.15;;;10.57;;
65156;SDS011;52745;49.794;18.258;2023-05-24T00:08:06;16.63;;;10.90;;
65156;SDS011;52745;49.794;18.258;2023-05-24T00:10:33;17.20;;;10.95;;
65156;SDS011;52745;49.794;18.258;2023-05-24T00:12:59;17.98;;;11.80;;
65156;SDS011;52745;49.794;18.258;2023-05-24T00:15:26;16.52;;;11.40;;
65156;SDS011;52745;49.794;18.258;2023-05-24T00:17:53;17.35;;;11.50;;
65156;SDS011;52745;49.794;18.258;2023-05-24T00:20:19;17.60;;;11.57;;
65156;SDS011;52745;49.794;18.258;2023-05-24T00:22:46;20.02;;;12.23;;
65156;SDS011;52745;49.794;18.258;2023-05-24T00:25:13;17.77;;;11.73;;
65156;SDS011;52745;49.794;18.258;2023-05-24T00:27:39;22.83;;;12.18;;
65156;SDS011;52745;49.794;18.258;2023-05-24T00:30:06;16.73;;;11.18;;
65156;SDS011;52745;49.794;18.258;2023-05-24T00:32:33;18.15;;;11.05;;
65156;SDS011;52745;49.794;18.258;2023-05-24T00:35:00;17.75;;;11.75;;
65156;SDS011;52745;49.794;18.258;2023-05-24T00:37:27;16.98;;;11.50;;
65156;SDS011;52745;49.794;18.258;2023-05-24T00:39:54;22.95;;;11.98;;
65156;SDS011;52745;49.794;18.258;2023-05-24T00:42:21;19.88;;;12.10;;
65156;SDS011;52745;49.794;18.258;2023-05-24T00:44:48;17.85;;;11.88;;
65156;SDS011;52745;49.794;18.258;2023-05-24T00:47:15;22.30;;;12.25;;
65156;SDS011;52745;49.794;18.258;2023-05-24T00:49:42;17.52;;;12.82;;
65156;SDS011;52745;49.794;18.258;2023-05-24T00:52:09;21.35;;;12.80;;
65156;SDS011;52745;49.794;18.258;2023-05-24T00:54:36;18.85;;;12.18;;
65156;SDS011;52745;49.794;18.258;2023-05-24T00:57:05;20.35;;;12.25;;
65156;SDS011;52745;49.794;18.258;2023-05-24T00:59:32;19.23;;;12.90;;
65156;SDS011;52745;49.794;18.258;2023-05-24T01:01:59;21.20;;;12.38;;
65156;SDS011;52745;49.794;18.258;2023-05-24T01:04:26;17.73;;;12.75;;
65156;SDS011;52745;49.794;18.258;2023-05-24T01:09:33;19.17;;;12.18;;
65156;SDS011;52745;49.794;18.258;2023-05-24T01:15:51;19.27;;;12.35;;
65156;SDS011;52745;49.794;18.258;2023-05-24T01:18:27;18.08;;;12.85;;
65156;SDS011;52745;49.794;18.258;2023-05-24T01:26:59;22.25;;;14.55;;
65156;SDS011;52745;49.794;18.258;2023-05-24T01:29:34;22.52;;;14.95;;
65156;SDS011;52745;49.794;18.258;2023-05-24T01:32:01;26.45;;;14.82;;
65156;SDS011;52745;49.794;18.258;2023-05-24T01:34:29;22.50;;;14.13;;
65156;SDS011;52745;49.794;18.258;2023-05-24T01:36:56;21.17;;;13.90;;
65156;SDS011;52745;49.794;18.258;2023-05-24T01:39:26;25.90;;;15.45;;
65156;SDS011;52745;49.794;18.258;2023-05-24T01:44:48;21.27;;;14.82;;
65156;SDS011;52745;49.794;18.258;2023-05-24T01:49:53;27.35;;;15.80;;
65156;SDS011;52745;49.794;18.258;2023-05-24T01:52:30;27.67;;;14.77;;
65156;SDS011;52745;49.794;18.258;2023-05-24T01:55:02;23.10;;;13.55;;
65156;SDS011;52745;49.794;18.258;2023-05-24T01:57:33;20.77;;;13.05;;
65156;SDS011;52745;49.794;18.258;2023-05-24T02:00:00;25.08;;;13.73;;
65156;SDS011;52745;49.794;18.258;2023-05-24T02:02:39;20.90;;;13.15;;
65156;SDS011;52745;49.794;18.258;2023-05-24T02:05:06;20.52;;;12.80;;
65156;SDS011;52745;49.794;18.258;2023-05-24T02:07:34;18.33;;;12.60;;
65156;SDS011;52745;49.794;18.258;2023-05-24T02:10:01;19.55;;;12.50;;
65156;SDS011;52745;49.794;18.258;2023-05-24T02:12:28;17.90;;;12.63;;
65156;SDS011;52745;49.794;18.258;2023-05-24T02:14:56;21.13;;;13.40;;
65156;SDS011;52745;49.794;18.258;2023-05-24T02:17:23;20.83;;;13.82;;
65156;SDS011;52745;49.794;18.258;2023-05-24T02:19:52;22.90;;;13.07;;
65156;SDS011;52745;49.794;18.258;2023-05-24T02:22:19;19.73;;;12.98;;
65156;SDS011;52745;49.794;18.258;2023-05-24T02:24:47;20.10;;;13.65;;
65156;SDS011;52745;49.794;18.258;2023-05-24T02:27:14;21.50;;;13.13;;
65156;SDS011;52745;49.794;18.258;2023-05-24T02:29:40;21.10;;;13.27;;
65156;SDS011;52745;49.794;18.258;2023-05-24T02:32:07;19.10;;;13.40;;
65156;SDS011;52745;49.794;18.258;2023-05-24T02:34:34;20.90;;;13.88;;
65156;SDS011;52745;49.794;18.258;2023-05-24T02:37:01;22.40;;;13.40;;
65156;SDS011;52745;49.794;18.258;2023-05-24T02:39:27;21.52;;;14.50;;
65156;SDS011;52745;49.794;18.258;2023-05-24T02:41:54;19.45;;;13.43;;
65156;SDS011;52745;49.794;18.258;2023-05-24T02:44:21;21.30;;;13.63;;
65156;SDS011;52745;49.794;18.258;2023-05-24T02:46:48;19.50;;;13.63;;
65156;SDS011;52745;49.794;18.258;2023-05-24T02:49:14;21.70;;;13.70;;
65156;SDS011;52745;49.794;18.258;2023-05-24T02:51:41;22.75;;;14.23;;
65156;SDS011;52745;49.794;18.258;2023-05-24T02:54:08;21.85;;;13.73;;
65156;SDS011;52745;49.794;18.258;2023-05-24T02:56:34;18.95;;;12.35;;
65156;SDS011;52745;49.794;18.258;2023-05-24T02:59:02;21.70;;;13.15;;
65156;SDS011;52745;49.794;18.258;2023-05-24T03:01:29;21.52;;;12.73;;
65156;SDS011;52745;49.794;18.258;2023-05-24T03:03:58;19.35;;;12.95;;
65156;SDS011;52745;49.794;18.258;2023-05-24T03:06:25;18.67;;;11.55;;
65156;SDS011;52745;49.794;18.258;2023-05-24T03:08:51;20.90;;;12.75;;
65156;SDS011;52745;49.794;18.258;2023-05-24T03:11:19;18.05;;;12.85;;
65156;SDS011;52745;49.794;18.258;2023-05-24T03:13:47;21.55;;;12.48;;
65156;SDS011;52745;49.794;18.258;2023-05-24T03:16:15;20.48;;;12.35;;
65156;SDS011;52745;49.794;18.258;2023-05-24T03:18:42;18.73;;;11.85;;
65156;SDS011;52745;49.794;18.258;2023-05-24T03:21:09;20.48;;;12.25;;
65156;SDS011;52745;49.794;18.258;2023-05-24T03:23:36;18.80;;;10.52;;
65156;SDS011;52745;49.794;18.258;2023-05-24T03:26:03;13.48;;;9.70;;
65156;SDS011;52745;49.794;18.258;2023-05-24T03:28:30;12.90;;;8.98;;
65156;SDS011;52745;49.794;18.258;2023-05-24T03:30:57;12.73;;;8.23;;
65156;SDS011;52745;49.794;18.258;2023-05-24T03:33:24;11.88;;;7.53;;
65156;SDS011;52745;49.794;18.258;2023-05-24T03:35:50;12.88;;;7.55;;
65156;SDS011;52745;49.794;18.258;2023-05-24T03:38:17;10.75;;;7.00;;
65156;SDS011;52745;49.794;18.258;2023-05-24T03:40:46;11.48;;;7.80;;
65156;SDS011;52745;49.794;18.258;2023-05-24T03:43:17;9.80;;;7.10;;
65156;SDS011;52745;49.794;18.258;2023-05-24T03:48:19;15.45;;;7.47;;
65156;SDS011;52745;49.794;18.258;2023-05-24T03:50:50;12.63;;;7.40;;
65156;SDS011;52745;49.794;18.258;2023-05-24T03:53:17;12.13;;;6.72;;
65156;SDS011;52745;49.794;18.258;2023-05-24T03:55:44;9.18;;;6.50;;
65156;SDS011;52745;49.794;18.258;2023-05-24T03:58:11;9.98;;;6.03;;
65156;SDS011;52745;49.794;18.258;2023-05-24T04:00:38;9.88;;;6.10;;
65156;SDS011;52745;49.794;18.258;2023-05-24T04:03:05;7.50;;;5.20;;
65156;SDS011;52745;49.794;18.258;2023-05-24T04:05:32;9.68;;;5.63;;
65156;SDS011;52745;49.794;18.258;2023-05-24T04:08:01;8.07;;;4.80;;
65156;SDS011;52745;49.794;18.258;2023-05-24T04:10:28;9.15;;;4.30;;
65156;SDS011;52745;49.794;18.258;2023-05-24T04:12:55;8.02;;;4.55;;
65156;SDS011;52745;49.794;18.258;2023-05-24T04:15:22;6.78;;;4.05;;
65156;SDS011;52745;49.794;18.258;2023-05-24T04:17:49;7.22;;;4.22;;
65156;SDS011;52745;49.794;18.258;2023-05-24T04:20:21;7.60;;;3.97;;
65156;SDS011;52745;49.794;18.258;2023-05-24T04:22:52;5.57;;;4.03;;
65156;SDS011;52745;49.794;18.258;2023-05-24T04:25:19;7.03;;;3.40;;
65156;SDS011;52745;49.794;18.258;2023-05-24T04:27:46;6.68;;;3.53;;
65156;SDS011;52745;49.794;18.258;2023-05-24T04:30:14;3.95;;;3.00;;
65156;SDS011;52745;49.794;18.258;2023-05-24T04:32:44;4.40;;;3.15;;
65156;SDS011;52745;49.794;18.258;2023-05-24T04:35:10;5.80;;;3.20;;
65156;SDS011;52745;49.794;18.258;2023-05-24T04:37:37;6.55;;;3.40;;
65156;SDS011;52745;49.794;18.258;2023-05-24T04:40:06;4.70;;;3.20;;
65156;SDS011;52745;49.794;18.258;2023-05-24T04:42:34;4.55;;;3.17;;
65156;SDS011;52745;49.794;18.258;2023-05-24T04:45:01;5.82;;;2.42;;
65156;SDS011;52745;49.794;18.258;2023-05-24T04:47:28;4.82;;;2.30;;
65156;SDS011;52745;49.794;18.258;2023-05-24T04:49:55;14.75;;;9.93;;
65156;SDS011;52745;49.794;18.258;2023-05-24T04:52:21;5.05;;;2.75;;
65156;SDS011;52745;49.794;18.258;2023-05-24T04:54:48;5.35;;;2.60;;
65156;SDS011;52745;49.794;18.258;2023-05-24T04:57:15;5.22;;;2.03;;
65156;SDS011;52745;49.794;18.258;2023-05-24T04:59:42;4.47;;;2.17;;
65156;SDS011;52745;49.794;18.258;2023-05-24T05:02:09;3.28;;;1.60;;
65156;SDS011;52745;49.794;18.258;2023-05-24T05:04:36;7.97;;;1.90;;
65156;SDS011;52745;49.794;18.258;2023-05-24T05:07:03;4.13;;;2.22;;
65156;SDS011;52745;49.794;18.258;2023-05-24T05:09:29;7.35;;;1.80;;
65156;SDS011;52745;49.794;18.258;2023-05-24T05:11:56;4.32;;;1.90;;
65156;SDS011;52745;49.794;18.258;2023-05-24T05:14:23;7.18;;;5.53;;
65156;SDS011;52745;49.794;18.258;2023-05-24T05:16:50;10.10;;;6.13;;
65156;SDS011;52745;49.794;18.258;2023-05-24T05:19:17;3.75;;;2.10;;
65156;SDS011;52745;49.794;18.258;2023-05-24T05:21:43;3.83;;;2.40;;
65156;SDS011;52745;49.794;18.258;2023-05-24T05:24:10;3.90;;;2.10;;
65156;SDS011;52745;49.794;18.258;2023-05-24T05:26:37;6.35;;;2.15;;
65156;SDS011;52745;49.794;18.258;2023-05-24T05:29:03;4.20;;;2.20;;
65156;SDS011;52745;49.794;18.258;2023-05-24T05:31:30;2.17;;;1.85;;
65156;SDS011;52745;49.794;18.258;2023-05-24T05:33:57;3.10;;;2.15;;
65156;SDS011;52745;49.794;18.258;2023-05-24T05:36:24;3.28;;;2.25;;
65156;SDS011;52745;49.794;18.258;2023-05-24T05:38:50;4.35;;;2.30;;
65156;SDS011;52745;49.794;18.258;2023-05-24T05:41:17;2.83;;;2.20;;
65156;SDS011;52745;49.794;18.258;2023-05-24T05:43:44;3.15;;;2.05;;
65156;SDS011;52745;49.794;18.258;2023-05-24T05:46:10;4.38;;;2.45;;
65156;SDS011;52745;49.794;18.258;2023-05-24T05:48:40;3.35;;;2.30;;
65156;SDS011;52745;49.794;18.258;2023-05-24T05:51:07;3.15;;;2.03;;
65156;SDS011;52745;49.794;18.258;2023-05-24T05:53:33;3.78;;;1.98;;
65156;SDS011;52745;49.794;18.258;2023-05-24T05:56:00;3.17;;;2.10;;
65156;SDS011;52745;49.794;18.258;2023-05-24T05:58:27;3.22;;;2.10;;
65156;SDS011;52745;49.794;18.258;2023-05-24T06:00:53;3.53;;;1.90;;
65156;SDS011;52745;49.794;18.258;2023-05-24T06:03:20;3.85;;;1.90;;
65156;SDS011;52745;49.794;18.258;2023-05-24T06:05:47;16.23;;;10.00;;
65156;SDS011;52745;49.794;18.258;2023-05-24T06:08:13;5.95;;;3.53;;
65156;SDS011;52745;49.794;18.258;2023-05-24T06:10:40;3.35;;;1.88;;
65156;SDS011;52745;49.794;18.258;2023-05-24T06:13:07;2.60;;;2.03;;
65156;SDS011;52745;49.794;18.258;2023-05-24T06:15:34;2.10;;;1.90;;
65156;SDS011;52745;49.794;18.258;2023-05-24T06:18:00;2.92;;;2.00;;
65156;SDS011;52745;49.794;18.258;2023-05-24T06:20:27;3.08;;;1.85;;
65156;SDS011;52745;49.794;18.258;2023-05-24T06:22:54;2.70;;;1.80;;
65156;SDS011;52745;49.794;18.258;2023-05-24T06:25:22;4.80;;;2.03;;
65156;SDS011;52745;49.794;18.258;2023-05-24T06:27:49;2.67;;;1.90;;
65156;SDS011;52745;49.794;18.258;2023-05-24T06:30:19;3.67;;;2.03;;
65156;SDS011;52745;49.794;18.258;2023-05-24T06:32:46;3.22;;;2.30;;
65156;SDS011;52745;49.794;18.258;2023-05-24T06:35:12;4.05;;;1.88;;
65156;SDS011;52745;49.794;18.258;2023-05-24T06:37:39;3.42;;;2.33;;
65156;SDS011;52745;49.794;18.258;2023-05-24T06:40:06;2.85;;;2.03;;
65156;SDS011;52745;49.794;18.258;2023-05-24T06:42:34;3.67;;;2.08;;
65156;SDS011;52745;49.794;18.258;2023-05-24T06:45:02;3.65;;;1.73;;
65156;SDS011;52745;49.794;18.258;2023-05-24T06:47:29;4.13;;;2.00;;
65156;SDS011;52745;49.794;18.258;2023-05-24T06:49:56;6.30;;;2.38;;
65156;SDS011;52745;49.794;18.258;2023-05-24T06:52:22;4.38;;;2.50;;
65156;SDS011;52745;49.794;18.258;2023-05-24T06:54:49;4.03;;;2.40;;
65156;SDS011;52745;49.794;18.258;2023-05-24T06:57:17;5.30;;;1.92;;
65156;SDS011;52745;49.794;18.258;2023-05-24T06:59:43;6.90;;;2.30;;
65156;SDS011;52745;49.794;18.258;2023-05-24T07:02:10;3.55;;;2.20;;
65156;SDS011;52745;49.794;18.258;2023-05-24T07:04:37;5.90;;;2.15;;
65156;SDS011;52745;49.794;18.258;2023-05-24T07:07:08;2.63;;;1.95;;
65156;SDS011;52745;49.794;18.258;2023-05-24T07:09:39;2.50;;;1.90;;
65156;SDS011;52745;49.794;18.258;2023-05-24T07:12:06;4.57;;;2.03;;
65156;SDS011;52745;49.794;18.258;2023-05-24T07:14:33;4.13;;;1.90;;
65156;SDS011;52745;49.794;18.258;2023-05-24T07:17:00;12.30;;;6.75;;
65156;SDS011;52745;49.794;18.258;2023-05-24T07:19:27;4.85;;;2.72;;
65156;SDS011;52745;49.794;18.258;2023-05-24T07:21:54;3.97;;;2.28;;
65156;SDS011;52745;49.794;18.258;2023-05-24T07:24:22;9.75;;;2.47;;
65156;SDS011;52745;49.794;18.258;2023-05-24T07:26:49;4.40;;;2.33;;
65156;SDS011;52745;49.794;18.258;2023-05-24T07:29:17;8.75;;;2.63;;
65156;SDS011;52745;49.794;18.258;2023-05-24T07:31:43;3.38;;;2.20;;
65156;SDS011;52745;49.794;18.258;2023-05-24T07:34:10;4.75;;;2.40;;
65156;SDS011;52745;49.794;18.258;2023-05-24T07:36:37;4.35;;;2.20;;
65156;SDS011;52745;49.794;18.258;2023-05-24T07:39:03;5.80;;;2.40;;
65156;SDS011;52745;49.794;18.258;2023-05-24T07:41:31;4.68;;;2.30;;
65156;SDS011;52745;49.794;18.258;2023-05-24T07:43:58;4.55;;;2.50;;
65156;SDS011;52745;49.794;18.258;2023-05-24T07:46:25;5.75;;;3.03;;
65156;SDS011;52745;49.794;18.258;2023-05-24T07:48:52;5.28;;;2.80;;
65156;SDS011;52745;49.794;18.258;2023-05-24T07:51:18;11.82;;;3.47;;
65156;SDS011;52745;49.794;18.258;2023-05-24T07:53:46;3.42;;;2.63;;
65156;SDS011;52745;49.794;18.258;2023-05-24T07:56:13;3.95;;;2.70;;
65156;SDS011;52745;49.794;18.258;2023-05-24T07:58:40;5.45;;;3.10;;
65156;SDS011;52745;49.794;18.258;2023-05-24T08:01:09;3.55;;;2.95;;
65156;SDS011;52745;49.794;18.258;2023-05-24T08:03:35;4.93;;;3.20;;
65156;SDS011;52745;49.794;18.258;2023-05-24T08:06:03;16.40;;;4.45;;
65156;SDS011;52745;49.794;18.258;2023-05-24T08:08:30;9.57;;;3.70;;
65156;SDS011;52745;49.794;18.258;2023-05-24T08:10:56;5.25;;;3.50;;
65156;SDS011;52745;49.794;18.258;2023-05-24T08:13:23;5.80;;;3.25;;
65156;SDS011;52745;49.794;18.258;2023-05-24T08:15:50;4.60;;;3.33;;
65156;SDS011;52745;49.794;18.258;2023-05-24T08:18:16;5.18;;;3.70;;
65156;SDS011;52745;49.794;18.258;2023-05-24T08:20:43;6.88;;;4.00;;
65156;SDS011;52745;49.794;18.258;2023-05-24T08:23:10;5.22;;;3.63;;
65156;SDS011;52745;49.794;18.258;2023-05-24T08:25:36;4.32;;;3.55;;
65156;SDS011;52745;49.794;18.258;2023-05-24T08:28:03;5.22;;;4.10;;
65156;SDS011;52745;49.794;18.258;2023-05-24T08:30:30;4.68;;;3.67;;
65156;SDS011;52745;49.794;18.258;2023-05-24T08:32:57;5.25;;;3.92;;
65156;SDS011;52745;49.794;18.258;2023-05-24T08:35:24;6.45;;;4.20;;
65156;SDS011;52745;49.794;18.258;2023-05-24T08:37:51;9.05;;;6.82;;
65156;SDS011;52745;49.794;18.258;2023-05-24T08:40:17;19.60;;;12.10;;
65156;SDS011;52745;49.794;18.258;2023-05-24T08:42:44;6.28;;;4.63;;
65156;SDS011;52745;49.794;18.258;2023-05-24T08:45:12;4.45;;;3.60;;
65156;SDS011;52745;49.794;18.258;2023-05-24T08:47:40;6.18;;;3.95;;
65156;SDS011;52745;49.794;18.258;2023-05-24T08:50:07;5.60;;;4.07;;
65156;SDS011;52745;49.794;18.258;2023-05-24T08:52:35;7.43;;;4.47;;
65156;SDS011;52745;49.794;18.258;2023-05-24T08:55:04;5.40;;;4.50;;
65156;SDS011;52745;49.794;18.258;2023-05-24T08:57:32;6.38;;;4.40;;
65156;SDS011;52745;49.794;18.258;2023-05-24T09:00:05;7.72;;;4.78;;
65156;SDS011;52745;49.794;18.258;2023-05-24T09:02:34;8.70;;;5.20;;
65156;SDS011;52745;49.794;18.258;2023-05-24T09:05:03;5.40;;;4.80;;
65156;SDS011;52745;49.794;18.258;2023-05-24T09:07:34;8.02;;;5.88;;
65156;SDS011;52745;49.794;18.258;2023-05-24T09:10:05;8.07;;;5.60;;
65156;SDS011;52745;49.794;18.258;2023-05-24T09:12:35;9.70;;;6.13;;
65156;SDS011;52745;49.794;18.258;2023-05-24T09:15:03;11.45;;;8.13;;
65156;SDS011;52745;49.794;18.258;2023-05-24T09:17:33;15.23;;;10.80;;
65156;SDS011;52745;49.794;18.258;2023-05-24T09:20:01;50.92;;;11.95;;
65156;SDS011;52745;49.794;18.258;2023-05-24T09:22:32;60.22;;;12.40;;
65156;SDS011;52745;49.794;18.258;2023-05-24T09:25:00;112.40;;;20.83;;
65156;SDS011;52745;49.794;18.258;2023-05-24T09:27:27;8.05;;;5.70;;
65156;SDS011;52745;49.794;18.258;2023-05-24T09:29:57;8.60;;;5.55;;
65156;SDS011;52745;49.794;18.258;2023-05-24T09:32:24;9.10;;;5.30;;
65156;SDS011;52745;49.794;18.258;2023-05-24T09:34:51;7.53;;;5.53;;
65156;SDS011;52745;49.794;18.258;2023-05-24T09:37:21;9.80;;;5.38;;
65156;SDS011;52745;49.794;18.258;2023-05-24T09:39:52;6.57;;;4.75;;
65156;SDS011;52745;49.794;18.258;2023-05-24T09:42:21;8.35;;;4.88;;
65156;SDS011;52745;49.794;18.258;2023-05-24T09:44:59;7.40;;;5.22;;
65156;SDS011;52745;49.794;18.258;2023-05-24T09:47:40;6.82;;;4.95;;
65156;SDS011;52745;49.794;18.258;2023-05-24T09:50:11;7.30;;;5.53;;
65156;SDS011;52745;49.794;18.258;2023-05-24T09:52:40;15.73;;;5.30;;
65156;SDS011;52745;49.794;18.258;2023-05-24T09:55:10;11.60;;;4.53;;
65156;SDS011;52745;49.794;18.258;2023-05-24T09:57:42;15.23;;;8.98;;
65156;SDS011;52745;49.794;18.258;2023-05-24T10:00:10;11.80;;;6.53;;
65156;SDS011;52745;49.794;18.258;2023-05-24T10:02:46;14.43;;;5.93;;
65156;SDS011;52745;49.794;18.258;2023-05-24T10:05:29;10.02;;;5.20;;
65156;SDS011;52745;49.794;18.258;2023-05-24T10:07:56;10.95;;;6.05;;
65156;SDS011;52745;49.794;18.258;2023-05-24T10:10:27;7.50;;;6.30;;
65156;SDS011;52745;49.794;18.258;2023-05-24T10:12:56;11.88;;;6.30;;
65156;SDS011;52745;49.794;18.258;2023-05-24T10:15:24;14.93;;;8.90;;
65156;SDS011;52745;49.794;18.258;2023-05-24T10:17:55;21.55;;;14.00;;
65156;SDS011;52745;49.794;18.258;2023-05-24T10:20:23;12.52;;;6.93;;
65156;SDS011;52745;49.794;18.258;2023-05-24T10:23:08;10.65;;;7.00;;
65156;SDS011;52745;49.794;18.258;2023-05-24T10:25:37;12.45;;;7.75;;
65156;SDS011;52745;49.794;18.258;2023-05-24T10:28:10;16.35;;;7.75;;
65156;SDS011;52745;49.794;18.258;2023-05-24T10:33:17;14.88;;;7.90;;
65156;SDS011;52745;49.794;18.258;2023-05-24T10:35:47;13.45;;;8.40;;
65156;SDS011;52745;49.794;18.258;2023-05-24T10:38:14;11.05;;;7.65;;
65156;SDS011;52745;49.794;18.258;2023-05-24T10:40:41;14.32;;;8.05;;
65156;SDS011;52745;49.794;18.258;2023-05-24T10:43:09;12.00;;;7.78;;
65156;SDS011;52745;49.794;18.258;2023-05-24T10:45:36;12.57;;;7.43;;
65156;SDS011;52745;49.794;18.258;2023-05-24T10:50:40;15.93;;;8.45;;
65156;SDS011;52745;49.794;18.258;2023-05-24T10:53:12;12.52;;;8.05;;
65156;SDS011;52745;49.794;18.258;2023-05-24T10:58:18;12.07;;;7.00;;
65156;SDS011;52745;49.794;18.258;2023-05-24T11:00:45;7.70;;;6.25;;
65156;SDS011;52745;49.794;18.258;2023-05-24T11:03:14;14.25;;;7.00;;
65156;SDS011;52745;49.794;18.258;2023-05-24T11:08:31;28.30;;;16.48;;
65156;SDS011;52745;49.794;18.258;2023-05-24T11:11:01;48.40;;;25.45;;
65156;SDS011;52745;49.794;18.258;2023-05-24T11:13:37;8.63;;;6.22;;
65156;SDS011;52745;49.794;18.258;2023-05-24T11:16:05;9.43;;;6.03;;
65156;SDS011;52745;49.794;18.258;2023-05-24T11:18:33;14.25;;;6.70;;
65156;SDS011;52745;49.794;18.258;2023-05-24T11:21:05;8.38;;;5.95;;
65156;SDS011;52745;49.794;18.258;2023-05-24T11:23:33;9.38;;;6.28;;
65156;SDS011;52745;49.794;18.258;2023-05-24T11:26:01;10.77;;;6.22;;
65156;SDS011;52745;49.794;18.258;2023-05-24T11:28:29;11.55;;;6.18;;
65156;SDS011;52745;49.794;18.258;2023-05-24T11:30:56;8.38;;;6.00;;
65156;SDS011;52745;49.794;18.258;2023-05-24T11:33:23;10.52;;;6.10;;
65156;SDS011;52745;49.794;18.258;2023-05-24T11:35:49;10.35;;;6.15;;
65156;SDS011;52745;49.794;18.258;2023-05-24T11:38:17;8.43;;;5.68;;
65156;SDS011;52745;49.794;18.258;2023-05-24T11:40:47;8.85;;;5.82;;
65156;SDS011;52745;49.794;18.258;2023-05-24T11:45:43;24.58;;;14.73;;
65156;SDS011;52745;49.794;18.258;2023-05-24T11:48:14;10.30;;;6.22;;
65156;SDS011;52745;49.794;18.258;2023-05-24T11:50:42;9.35;;;5.25;;
65156;SDS011;52745;49.794;18.258;2023-05-24T11:53:10;10.27;;;4.80;;
65156;SDS011;52745;49.794;18.258;2023-05-24T11:55:38;12.02;;;6.38;;
65156;SDS011;52745;49.794;18.258;2023-05-24T12:00:42;12.23;;;6.63;;
65156;SDS011;52745;49.794;18.258;2023-05-24T12:03:09;8.05;;;4.60;;
65156;SDS011;52745;49.794;18.258;2023-05-24T12:05:35;8.88;;;4.88;;
65156;SDS011;52745;49.794;18.258;2023-05-24T12:08:04;9.57;;;5.35;;
65156;SDS011;52745;49.794;18.258;2023-05-24T12:10:35;8.00;;;4.80;;
65156;SDS011;52745;49.794;18.258;2023-05-24T12:13:03;6.25;;;4.80;;
65156;SDS011;52745;49.794;18.258;2023-05-24T12:15:30;9.18;;;4.55;;
65156;SDS011;52745;49.794;18.258;2023-05-24T12:17:58;8.43;;;4.65;;
65156;SDS011;52745;49.794;18.258;2023-05-24T12:20:28;9.35;;;4.60;;
65156;SDS011;52745;49.794;18.258;2023-05-24T12:22:55;8.98;;;4.65;;
65156;SDS011;52745;49.794;18.258;2023-05-24T12:25:22;9.00;;;4.45;;
65156;SDS011;52745;49.794;18.258;2023-05-24T12:27:52;7.82;;;4.60;;
65156;SDS011;52745;49.794;18.258;2023-05-24T12:30:21;8.20;;;4.53;;
65156;SDS011;52745;49.794;18.258;2023-05-24T12:32:49;11.07;;;5.38;;
65156;SDS011;52745;49.794;18.258;2023-05-24T12:35:16;11.75;;;4.50;;
65156;SDS011;52745;49.794;18.258;2023-05-24T12:37:44;8.70;;;4.47;;
65156;SDS011;52745;49.794;18.258;2023-05-24T12:40:18;12.25;;;4.97;;
65156;SDS011;52745;49.794;18.258;2023-05-24T12:42:50;8.00;;;4.25;;
65156;SDS011;52745;49.794;18.258;2023-05-24T12:45:19;9.90;;;4.53;;
65156;SDS011;52745;49.794;18.258;2023-05-24T12:47:51;7.38;;;4.15;;
65156;SDS011;52745;49.794;18.258;2023-05-24T12:50:18;20.70;;;5.20;;
65156;SDS011;52745;49.794;18.258;2023-05-24T12:52:47;10.35;;;4.85;;
65156;SDS011;52745;49.794;18.258;2023-05-24T12:55:21;7.05;;;4.55;;
65156;SDS011;52745;49.794;18.258;2023-05-24T12:57:49;7.15;;;4.57;;
65156;SDS011;52745;49.794;18.258;2023-05-24T13:00:19;6.78;;;4.60;;
65156;SDS011;52745;49.794;18.258;2023-05-24T13:02:48;12.98;;;4.90;;
65156;SDS011;52745;49.794;18.258;2023-05-24T13:05:15;9.68;;;4.80;;
65156;SDS011;52745;49.794;18.258;2023-05-24T13:07:42;9.07;;;4.78;;
65156;SDS011;52745;49.794;18.258;2023-05-24T13:10:10;10.38;;;5.70;;
65156;SDS011;52745;49.794;18.258;2023-05-24T13:12:37;9.25;;;5.22;;
65156;SDS011;52745;49.794;18.258;2023-05-24T13:15:05;10.75;;;5.28;;
65156;SDS011;52745;49.794;18.258;2023-05-24T13:17:33;11.02;;;5.50;;
65156;SDS011;52745;49.794;18.258;2023-05-24T13:20:01;10.48;;;4.90;;
65156;SDS011;52745;49.794;18.258;2023-05-24T13:22:32;8.70;;;5.25;;
65156;SDS011;52745;49.794;18.258;2023-05-24T13:25:00;10.68;;;4.80;;
65156;SDS011;52745;49.794;18.258;2023-05-24T13:27:28;9.40;;;4.90;;
65156;SDS011;52745;49.794;18.258;2023-05-24T13:29:55;8.88;;;4.65;;
65156;SDS011;52745;49.794;18.258;2023-05-24T13:32:22;7.60;;;3.75;;
65156;SDS011;52745;49.794;18.258;2023-05-24T13:34:49;8.57;;;4.00;;
65156;SDS011;52745;49.794;18.258;2023-05-24T13:37:16;11.70;;;4.78;;
65156;SDS011;52745;49.794;18.258;2023-05-24T13:39:42;6.47;;;3.78;;
65156;SDS011;52745;49.794;18.258;2023-05-24T13:42:10;8.93;;;4.30;;
65156;SDS011;52745;49.794;18.258;2023-05-24T13:44:36;7.47;;;4.05;;
65156;SDS011;52745;49.794;18.258;2023-05-24T13:47:04;8.27;;;3.92;;
65156;SDS011;52745;49.794;18.258;2023-05-24T13:49:31;10.27;;;4.20;;
65156;SDS011;52745;49.794;18.258;2023-05-24T13:51:58;8.50;;;4.13;;
65156;SDS011;52745;49.794;18.258;2023-05-24T13:54:24;6.80;;;4.32;;
65156;SDS011;52745;49.794;18.258;2023-05-24T13:56:51;9.75;;;4.35;;
65156;SDS011;52745;49.794;18.258;2023-05-24T13:59:22;8.45;;;4.40;;
65156;SDS011;52745;49.794;18.258;2023-05-24T14:01:49;9.40;;;4.43;;
65156;SDS011;52745;49.794;18.258;2023-05-24T14:04:15;7.18;;;4.15;;
65156;SDS011;52745;49.794;18.258;2023-05-24T14:06:42;9.45;;;4.68;;
65156;SDS011;52745;49.794;18.258;2023-05-24T14:09:08;7.50;;;4.60;;
65156;SDS011;52745;49.794;18.258;2023-05-24T14:11:36;7.97;;;4.15;;
65156;SDS011;52745;49.794;18.258;2023-05-24T14:14:02;9.07;;;4.70;;
65156;SDS011;52745;49.794;18.258;2023-05-24T14:16:29;7.47;;;4.05;;
65156;SDS011;52745;49.794;18.258;2023-05-24T14:18:56;10.75;;;5.47;;
65156;SDS011;52745;49.794;18.258;2023-05-24T14:21:23;8.57;;;4.63;;
65156;SDS011;52745;49.794;18.258;2023-05-24T14:23:51;10.55;;;5.50;;
65156;SDS011;52745;49.794;18.258;2023-05-24T14:26:18;8.88;;;5.20;;
65156;SDS011;52745;49.794;18.258;2023-05-24T14:28:47;9.13;;;5.70;;
65156;SDS011;52745;49.794;18.258;2023-05-24T14:31:13;9.48;;;5.35;;
65156;SDS011;52745;49.794;18.258;2023-05-24T14:33:40;7.57;;;4.93;;
65156;SDS011;52745;49.794;18.258;2023-05-24T14:36:07;8.55;;;5.03;;
65156;SDS011;52745;49.794;18.258;2023-05-24T14:38:34;10.02;;;4.97;;
65156;SDS011;52745;49.794;18.258;2023-05-24T14:41:01;9.02;;;5.07;;
65156;SDS011;52745;49.794;18.258;2023-05-24T14:43:28;10.88;;;5.18;;
65156;SDS011;52745;49.794;18.258;2023-05-24T14:45:54;9.10;;;4.80;;
65156;SDS011;52745;49.794;18.258;2023-05-24T14:48:21;10.27;;;4.93;;
65156;SDS011;52745;49.794;18.258;2023-05-24T14:50:48;9.13;;;5.18;;
65156;SDS011;52745;49.794;18.258;2023-05-24T14:53:14;11.65;;;5.30;;
65156;SDS011;52745;49.794;18.258;2023-05-24T14:55:41;7.10;;;4.90;;
65156;SDS011;52745;49.794;18.258;2023-05-24T14:58:08;12.32;;;5.40;;
65156;SDS011;52745;49.794;18.258;2023-05-24T15:00:37;8.60;;;4.80;;
65156;SDS011;52745;49.794;18.258;2023-05-24T15:03:04;8.02;;;5.07;;
65156;SDS011;52745;49.794;18.258;2023-05-24T15:05:33;7.20;;;5.13;;